Time;durP1;ratioP1;P1;durP2;ratioP2;P2;SDS_P1;SDS_P2;PMS_P1;PMS_P2;Temp;Humidity;BMP_temperature;BMP_pressure;BME280_temperature;BME280_humidity;BME280_pressure;Samples;Min_cycle;Max_cycle;Signal;HPM_P1;HPM_P2
2022/03/30 00:01:36;;;;;;;33.17;21.03;;;;;;;10.38;100.00;97979.72;4991000;28;20210;-79
2022/03/30 00:04:05;;;;;;;31.23;20.33;;;;;;;10.49;100.00;97983.16;4943139;28;20215;-78
2022/03/30 00:06:37;;;;;;;28.50;19.63;;;;;;;10.48;100.00;97988.59;4991127;28;20214;-78
2022/03/30 00:09:07;;;;;;;29.70;20.53;;;;;;;10.50;100.00;97987.50;4996415;28;20207;-78
2022/03/30 00:11:35;;;;;;;33.03;21.63;;;;;;;10.47;100.00;97985.09;4991968;28;20191;-79
2022/03/30 00:14:04;;;;;;;32.80;20.43;;;;;;;10.45;100.00;97980.91;4994426;28;20195;-79
2022/03/30 00:16:34;;;;;;;30.70;20.10;;;;;;;10.32;100.00;97978.41;4990515;28;20194;-78
2022/03/30 00:19:03;;;;;;;36.17;21.10;;;;;;;10.30;100.00;97981.19;4984593;28;20653;-78
2022/03/30 00:21:31;;;;;;;39.67;22.87;;;;;;;10.14;100.00;97978.09;4993882;28;20223;-79
2022/03/30 00:24:00;;;;;;;34.73;22.03;;;;;;;10.13;100.00;97978.19;4974423;28;20223;-79
2022/03/30 00:26:31;;;;;;;37.83;22.83;;;;;;;9.80;100.00;97971.19;4994559;28;20215;-78
2022/03/30 00:29:03;;;;;;;36.57;22.30;;;;;;;9.88;100.00;97979.34;4994338;28;20227;-78
2022/03/30 00:31:31;;;;;;;35.27;22.43;;;;;;;10.01;100.00;97974.75;4972782;28;20207;-78
2022/03/30 00:34:00;;;;;;;36.40;22.90;;;;;;;10.01;100.00;97978.22;4994412;28;20199;-79
2022/03/30 00:36:28;;;;;;;34.17;22.23;;;;;;;9.77;100.00;97972.28;4993208;28;20671;-78
2022/03/30 00:38:58;;;;;;;34.67;23.63;;;;;;;9.85;100.00;97972.50;4994789;28;20195;-78
2022/03/30 00:41:28;;;;;;;34.30;22.83;;;;;;;9.69;100.00;97974.69;4993644;28;20281;-78
2022/03/30 00:43:58;;;;;;;34.67;22.03;;;;;;;9.71;100.00;97976.25;4991917;28;20237;-78
2022/03/30 00:46:26;;;;;;;37.30;22.97;;;;;;;9.70;100.00;97974.56;4990445;28;20210;-77
2022/03/30 00:48:56;;;;;;;35.53;22.70;;;;;;;9.71;100.00;97964.81;4993605;28;20654;-77
2022/03/30 00:51:24;;;;;;;36.77;23.60;;;;;;;9.86;100.00;97962.78;4988765;28;20382;-77
2022/03/30 00:53:56;;;;;;;39.37;24.03;;;;;;;9.44;100.00;97962.56;4991030;28;20701;-78
2022/03/30 00:56:25;;;;;;;37.37;24.13;;;;;;;9.45;100.00;97961.59;4996808;28;20198;-77
2022/03/30 00:59:02;;;;;;;35.90;24.23;;;;;;;9.37;100.00;97956.94;4995980;28;20237;-78
2022/03/30 01:01:31;;;;;;;39.27;24.27;;;;;;;9.33;100.00;97966.03;4990552;28;20203;-78
2022/03/30 01:03:59;;;;;;;36.43;23.20;;;;;;;9.45;100.00;97964.22;4989127;28;20194;-78
2022/03/30 01:06:28;;;;;;;39.70;24.33;;;;;;;8.91;100.00;97959.66;4993395;28;20226;-78
2022/03/30 01:08:58;;;;;;;38.60;24.43;;;;;;;8.88;100.00;97958.09;4990712;28;20203;-78
2022/03/30 01:11:30;;;;;;;38.47;24.90;;;;;;;8.94;100.00;97966.47;4990260;28;20253;-78
2022/03/30 01:14:00;;;;;;;38.37;25.03;;;;;;;8.76;100.00;97964.28;4922850;28;20208;-78
2022/03/30 01:16:32;;;;;;;43.23;24.97;;;;;;;8.78;100.00;97957.13;4970632;28;20203;-78
2022/03/30 01:19:05;;;;;;;39.60;24.80;;;;;;;8.86;100.00;97938.03;4967050;28;20211;-78
2022/03/30 01:21:36;;;;;;;37.67;25.13;;;;;;;8.87;100.00;97934.41;4965871;28;20227;-78
2022/03/30 01:24:05;;;;;;;39.90;25.97;;;;;;;8.70;100.00;97935.72;4970454;28;20677;-78
2022/03/30 01:26:34;;;;;;;36.27;23.73;;;;;;;8.85;100.00;97917.88;4948251;28;20220;-77
2022/03/30 01:32:25;;;;;;;38.23;24.90;;;;;;;8.96;100.00;97912.59;4948749;28;20256;-78
2022/03/30 01:34:41;;;;;;;45.67;26.80;;;;;;;8.73;100.00;97902.97;4956285;28;20211;-78
2022/03/30 01:37:14;;;;;;;44.83;26.93;;;;;;;8.79;100.00;97900.72;4957441;28;20204;-77
2022/03/30 01:39:43;;;;;;;38.57;24.00;;;;;;;8.64;100.00;97906.31;4956479;29;20197;-78
2022/03/30 01:42:11;;;;;;;42.10;25.93;;;;;;;8.52;100.00;97897.53;4955496;28;20295;-78
2022/03/30 01:44:41;;;;;;;39.63;25.73;;;;;;;8.74;100.00;97902.00;4981154;28;20377;-78
2022/03/30 01:47:10;;;;;;;40.57;25.73;;;;;;;8.69;100.00;97894.47;5006543;28;20202;-78
2022/03/30 01:49:41;;;;;;;39.87;25.43;;;;;;;8.55;100.00;97890.22;5003670;28;20206;-78
2022/03/30 01:52:15;;;;;;;39.47;24.67;;;;;;;8.69;100.00;97888.34;5012399;28;20209;-78
2022/03/30 01:54:45;;;;;;;41.70;26.53;;;;;;;8.71;100.00;97887.25;5014585;28;20206;-78
2022/03/30 01:57:14;;;;;;;42.07;26.70;;;;;;;8.52;100.00;97877.28;5010907;28;20281;-78
2022/03/30 01:59:44;;;;;;;44.53;26.50;;;;;;;8.59;100.00;97865.28;5008804;28;20191;-78
2022/03/30 02:02:13;;;;;;;43.07;25.93;;;;;;;8.49;100.00;97871.38;5007193;28;20658;-78
2022/03/30 02:04:43;;;;;;;42.73;27.37;;;;;;;8.42;100.00;97864.91;4992254;28;20278;-78
2022/03/30 02:07:11;;;;;;;40.40;25.90;;;;;;;8.61;100.00;97862.53;4994678;28;20206;-78
2022/03/30 02:09:42;;;;;;;42.77;26.00;;;;;;;8.29;100.00;97854.38;4996661;28;20210;-77
2022/03/30 02:12:11;;;;;;;38.23;26.37;;;;;;;8.24;100.00;97856.53;4993315;28;20559;-78
2022/03/30 02:14:39;;;;;;;41.87;25.17;;;;;;;8.40;100.00;97857.09;4988418;28;20206;-77
2022/03/30 02:17:09;;;;;;;42.57;26.43;;;;;;;8.28;100.00;97845.63;4990475;28;20363;-78
2022/03/30 02:19:37;;;;;;;40.73;26.43;;;;;;;8.28;100.00;97847.44;4992482;28;20273;-78
2022/03/30 02:22:07;;;;;;;43.53;27.17;;;;;;;8.35;100.00;97842.56;4992255;28;20207;-78
2022/03/30 02:24:37;;;;;;;42.67;26.30;;;;;;;8.47;100.00;97839.81;4999471;28;20229;-78
2022/03/30 02:27:07;;;;;;;42.97;27.07;;;;;;;8.19;100.00;97840.22;5000777;28;20242;-78
2022/03/30 02:29:36;;;;;;;43.57;26.63;;;;;;;8.25;100.00;97842.38;4997379;28;20222;-78
2022/03/30 02:32:13;;;;;;;44.60;27.40;;;;;;;8.36;100.00;97841.59;4996478;28;20195;-78
2022/03/30 02:34:42;;;;;;;42.97;26.27;;;;;;;8.29;100.00;97842.03;4993776;28;20210;-78
2022/03/30 02:37:11;;;;;;;43.20;27.07;;;;;;;8.33;100.00;97845.28;4975741;28;20202;-78
2022/03/30 02:39:39;;;;;;;44.83;27.07;;;;;;;8.25;100.00;97843.22;4998159;28;20210;-77
2022/03/30 02:42:10;;;;;;;42.80;26.53;;;;;;;8.19;100.00;97825.22;4995715;28;20207;-78
2022/03/30 02:44:41;;;;;;;44.17;26.33;;;;;;;8.19;100.00;97825.22;4992749;28;20191;-78
2022/03/30 02:47:09;;;;;;;44.80;26.67;;;;;;;8.38;100.00;97829.13;4995710;28;20227;-78
2022/03/30 02:49:38;;;;;;;40.80;26.57;;;;;;;8.33;100.00;97834.75;4990751;28;20199;-78
2022/03/30 02:52:08;;;;;;;45.60;28.10;;;;;;;8.22;100.00;97832.09;4995832;28;20623;-78
2022/03/30 02:54:37;;;;;;;45.27;27.90;;;;;;;8.43;100.00;97833.13;4991584;28;20203;-78
2022/03/30 02:57:06;;;;;;;42.07;26.70;;;;;;;8.41;100.00;97831.56;4996679;28;20195;-78
2022/03/30 02:59:36;;;;;;;44.57;26.30;;;;;;;8.43;100.00;97829.63;4994427;28;20278;-77
2022/03/30 03:02:05;;;;;;;40.83;26.60;;;;;;;8.46;100.00;97827.59;4987554;28;20203;-78
2022/03/30 03:04:35;;;;;;;46.03;27.30;;;;;;;8.14;100.00;97823.91;4995602;28;20195;-78
2022/03/30 03:07:04;;;;;;;43.10;26.20;;;;;;;8.24;100.00;97819.63;4991763;28;20247;-78
2022/03/30 03:09:33;;;;;;;46.37;26.60;;;;;;;8.12;100.00;97820.56;4995682;28;20234;-78
2022/03/30 03:12:01;;;;;;;45.23;27.87;;;;;;;8.11;100.00;97816.25;4991028;28;20643;-78
2022/03/30 03:14:30;;;;;;;42.30;27.37;;;;;;;8.26;100.00;97815.91;4993084;28;20195;-78
2022/03/30 03:16:59;;;;;;;43.83;26.47;;;;;;;8.28;100.00;97815.78;4995592;28;20203;-78
2022/03/30 03:19:32;;;;;;;44.47;27.77;;;;;;;8.07;100.00;97809.50;4992901;28;20249;-78
2022/03/30 03:22:01;;;;;;;45.00;27.87;;;;;;;8.11;100.00;97811.81;4993470;28;20262;-78
2022/03/30 03:24:29;;;;;;;44.37;28.93;;;;;;;7.91;100.00;97815.06;4990230;28;20282;-78
2022/03/30 03:26:59;;;;;;;46.23;28.33;;;;;;;7.87;100.00;97818.91;4990598;28;20219;-77
2022/03/30 03:29:27;;;;;;;45.13;29.10;;;;;;;8.00;100.00;97831.03;4992540;28;20253;-77
2022/03/30 03:31:56;;;;;;;44.43;27.67;;;;;;;8.01;100.00;97831.91;4994818;28;20279;-77
2022/03/30 03:34:26;;;;;;;45.60;28.17;;;;;;;8.03;100.00;97828.19;4993070;28;20270;-77
2022/03/30 03:36:55;;;;;;;46.10;27.53;;;;;;;8.13;100.00;97830.13;4997301;28;20199;-78
2022/03/30 03:39:23;;;;;;;46.33;28.67;;;;;;;7.74;100.00;97833.00;4991334;28;20283;-78
2022/03/30 03:41:53;;;;;;;48.30;30.50;;;;;;;7.54;100.00;97827.50;4992633;28;20206;-78
2022/03/30 03:44:21;;;;;;;47.13;29.50;;;;;;;7.33;100.00;97836.00;4996092;28;20207;-78
2022/03/30 03:46:51;;;;;;;52.00;29.63;;;;;;;7.56;100.00;97841.41;4994392;28;20217;-78
2022/03/30 03:49:20;;;;;;;51.90;30.67;;;;;;;7.32;100.00;97836.09;4994709;28;20250;-77
2022/03/30 03:51:50;;;;;;;48.50;30.10;;;;;;;7.38;100.00;97840.94;4991169;28;20655;-78
2022/03/30 03:54:18;;;;;;;53.80;31.27;;;;;;;7.10;100.00;97842.91;4995437;28;20225;-78
2022/03/30 03:56:47;;;;;;;50.17;31.43;;;;;;;7.10;100.00;97844.72;4990127;28;20215;-78
2022/03/30 03:59:15;;;;;;;51.00;29.73;;;;;;;7.05;100.00;97842.41;4992853;28;20210;-78
2022/03/30 04:01:44;;;;;;;50.23;29.50;;;;;;;7.12;100.00;97848.91;4993003;28;20279;-78
2022/03/30 04:04:12;;;;;;;54.23;30.70;;;;;;;7.09;100.00;97854.41;4993489;28;20199;-78
2022/03/30 04:06:41;;;;;;;56.47;31.77;;;;;;;6.93;100.00;97851.16;4993249;28;20234;-78
2022/03/30 04:09:12;;;;;;;48.90;31.17;;;;;;;7.05;100.00;97849.47;4991490;28;20202;-78
2022/03/30 04:11:41;;;;;;;50.70;31.30;;;;;;;7.07;100.00;97847.56;4993778;28;20238;-78
2022/03/30 04:14:09;;;;;;;55.57;31.67;;;;;;;7.02;100.00;97845.25;4990850;28;20250;-78
2022/03/30 04:16:38;;;;;;;57.07;32.33;;;;;;;7.16;100.00;97855.66;4994226;28;20203;-78
2022/03/30 04:19:06;;;;;;;55.03;31.90;;;;;;;7.13;100.00;97852.38;4994179;28;20274;-78
2022/03/30 04:21:34;;;;;;;53.37;31.27;;;;;;;6.99;100.00;97857.78;4986244;28;20238;-78
2022/03/30 04:24:04;;;;;;;51.53;32.27;;;;;;;6.98;100.00;97851.69;4990487;28;20207;-79
2022/03/30 04:26:36;;;;;;;57.87;32.50;;;;;;;6.96;100.00;97848.34;4993276;28;20222;-79
2022/03/30 04:29:04;;;;;;;48.43;31.30;;;;;;;7.07;100.00;97843.16;4994596;28;20713;-79
2022/03/30 04:31:33;;;;;;;52.97;30.77;;;;;;;6.99;100.00;97844.63;4994473;28;20531;-78
2022/03/30 04:34:02;;;;;;;53.80;31.73;;;;;;;7.02;100.00;97844.41;4995146;28;20201;-78
2022/03/30 04:36:30;;;;;;;53.93;30.47;;;;;;;7.08;100.00;97839.56;4993067;28;20222;-78
2022/03/30 04:38:58;;;;;;;50.83;31.23;;;;;;;7.10;100.00;97842.91;4992501;28;20191;-78
2022/03/30 04:41:26;;;;;;;53.17;31.77;;;;;;;7.03;100.00;97840.81;4991554;28;20191;-79
2022/03/30 04:44:05;;;;;;;52.43;31.27;;;;;;;7.04;100.00;97838.06;4991061;28;20757;-78
2022/03/30 04:46:33;;;;;;;54.13;32.13;;;;;;;6.91;100.00;97833.81;4992940;28;20236;-78
2022/03/30 04:49:02;;;;;;;48.97;31.13;;;;;;;6.87;100.00;97826.13;4993810;28;20214;-78
2022/03/30 04:51:30;;;;;;;48.60;30.93;;;;;;;7.02;100.00;97829.44;4990217;28;20233;-79
2022/03/30 04:53:59;;;;;;;58.97;33.23;;;;;;;7.08;100.00;97828.19;4992347;28;20203;-78
2022/03/30 04:56:27;;;;;;;59.10;32.17;;;;;;;6.84;100.00;97826.31;4991125;28;20214;-78
2022/03/30 04:58:57;;;;;;;54.00;31.47;;;;;;;6.85;100.00;97822.78;4987707;28;20187;-79
2022/03/30 05:01:28;;;;;;;51.00;30.90;;;;;;;6.89;100.00;97821.59;4991422;28;20201;-78
2022/03/30 05:03:58;;;;;;;50.30;31.70;;;;;;;6.87;100.00;97820.88;4988531;28;20277;-78
2022/03/30 05:06:26;;;;;;;57.10;33.27;;;;;;;6.70;100.00;97818.56;4969773;28;20283;-78
2022/03/30 05:08:54;;;;;;;51.43;32.27;;;;;;;6.78;100.00;97825.94;4972276;28;20223;-78
2022/03/30 05:11:22;;;;;;;54.80;32.40;;;;;;;6.79;100.00;97822.34;4963241;28;20204;-79
2022/03/30 05:13:51;;;;;;;51.13;30.20;;;;;;;6.85;100.00;97819.28;4963422;28;20202;-77
2022/03/30 05:16:19;;;;;;;52.23;31.40;;;;;;;6.94;100.00;97809.88;4959662;28;20196;-78
2022/03/30 05:18:49;;;;;;;52.97;31.00;;;;;;;6.79;100.00;97817.94;4970563;28;20208;-78
2022/03/30 05:21:17;;;;;;;55.23;32.10;;;;;;;6.89;100.00;97810.22;4961653;28;20223;-78
2022/03/30 05:23:48;;;;;;;50.43;32.37;;;;;;;6.79;100.00;97810.03;4968260;28;20202;-78
2022/03/30 05:26:16;;;;;;;56.03;32.13;;;;;;;6.93;100.00;97814.31;4993601;28;20191;-78
2022/03/30 05:28:45;;;;;;;55.83;32.70;;;;;;;6.93;100.00;97800.31;4989458;28;20489;-78
2022/03/30 05:31:13;;;;;;;53.87;31.50;;;;;;;6.85;100.00;97800.84;4991788;28;20277;-78
2022/03/30 05:33:42;;;;;;;54.70;32.13;;;;;;;6.79;100.00;97796.88;4995102;28;20286;-78
2022/03/30 05:36:12;;;;;;;53.40;32.67;;;;;;;6.82;100.00;97788.75;4984718;28;20206;-78
2022/03/30 05:38:40;;;;;;;50.40;31.40;;;;;;;6.99;100.00;97789.34;4993273;28;20203;-78
2022/03/30 05:41:09;;;;;;;52.30;31.03;;;;;;;7.02;100.00;97791.75;4993318;28;20195;-78
2022/03/30 05:43:39;;;;;;;54.17;31.90;;;;;;;6.98;100.00;97791.16;4991903;28;20202;-78
2022/03/30 05:46:08;;;;;;;54.57;32.53;;;;;;;7.13;100.00;97797.09;4991943;28;20670;-78
2022/03/30 05:48:37;;;;;;;53.00;31.07;;;;;;;7.07;100.00;97795.75;4987226;28;20223;-78
2022/03/30 05:51:06;;;;;;;56.93;31.57;;;;;;;7.24;100.00;97797.19;4989154;28;20286;-78
2022/03/30 05:53:36;;;;;;;54.53;32.80;;;;;;;7.08;100.00;97794.81;4993259;28;20234;-78
2022/03/30 05:56:04;;;;;;;54.43;31.53;;;;;;;7.11;100.00;97802.47;4988570;28;20207;-79
2022/03/30 05:58:33;;;;;;;48.93;30.77;;;;;;;6.99;100.00;97800.72;4987315;28;20199;-78
2022/03/30 06:01:04;;;;;;;49.70;29.73;;;;;;;6.94;100.00;97812.53;4929606;29;20276;-78
2022/03/30 06:03:37;;;;;;;57.23;30.67;;;;;;;6.95;100.00;97803.66;4929327;29;20189;-78
2022/03/30 06:06:07;;;;;;;52.90;31.30;;;;;;;6.82;100.00;97801.91;4933603;29;20193;-78
2022/03/30 06:08:40;;;;;;;57.57;31.70;;;;;;;6.78;100.00;97799.63;4931778;29;20220;-78
2022/03/30 06:11:08;;;;;;;57.03;32.60;;;;;;;7.04;100.00;97798.59;4928932;29;20281;-78
2022/03/30 06:13:36;;;;;;;55.90;32.83;;;;;;;7.02;100.00;97807.56;4928520;29;20684;-79
2022/03/30 06:16:08;;;;;;;53.57;32.07;;;;;;;7.11;100.00;97802.47;4933810;28;20197;-79
2022/03/30 06:18:37;;;;;;;50.23;29.97;;;;;;;7.04;100.00;97805.66;4932965;28;20207;-79
2022/03/30 06:21:05;;;;;;;57.37;32.00;;;;;;;6.95;100.00;97807.19;4992703;28;20231;-79
2022/03/30 06:23:35;;;;;;;50.27;30.03;;;;;;;7.16;100.00;97802.16;4988893;28;20191;-79
2022/03/30 06:26:05;;;;;;;50.70;30.97;;;;;;;7.24;100.00;97801.59;4989597;28;20207;-78
2022/03/30 06:28:35;;;;;;;51.77;32.00;;;;;;;7.28;100.00;97808.31;4994787;28;20280;-78
2022/03/30 06:31:03;;;;;;;52.87;32.13;;;;;;;7.27;100.00;97802.22;5004133;28;20202;-79
2022/03/30 06:33:32;;;;;;;54.13;30.70;;;;;;;7.41;100.00;97798.56;5010737;28;20203;-79
2022/03/30 06:36:01;;;;;;;50.20;31.23;;;;;;;7.10;100.00;97802.59;5007204;28;20198;-78
2022/03/30 06:38:30;;;;;;;54.00;31.43;;;;;;;7.15;100.00;97800.47;5006429;28;20201;-78
2022/03/30 06:40:58;;;;;;;57.60;32.70;;;;;;;7.07;100.00;97803.66;5005411;28;20717;-78
2022/03/30 06:43:28;;;;;;;54.53;33.07;;;;;;;7.23;100.00;97800.75;5003857;28;20550;-78
2022/03/30 06:45:57;;;;;;;56.23;32.50;;;;;;;7.11;100.00;97788.47;5004704;28;20202;-78
2022/03/30 06:48:25;;;;;;;52.97;31.23;;;;;;;7.45;100.00;97789.50;5006493;28;20865;-79
2022/03/30 06:50:53;;;;;;;56.57;33.80;;;;;;;7.13;100.00;97792.66;5008730;28;20194;-78
2022/03/30 06:53:21;;;;;;;54.30;31.50;;;;;;;7.41;100.00;97793.31;5005867;28;20206;-78
2022/03/30 06:55:50;;;;;;;51.30;31.17;;;;;;;7.31;100.00;97789.66;5006531;28;20213;-78
2022/03/30 06:58:22;;;;;;;52.90;31.63;;;;;;;7.53;100.00;97781.03;5002246;28;20206;-79
2022/03/30 07:00:52;;;;;;;51.23;30.43;;;;;;;7.65;100.00;97788.03;5006330;28;20202;-79
2022/03/30 07:03:22;;;;;;;52.53;31.20;;;;;;;7.72;100.00;97789.25;4995727;28;20202;-78
2022/03/30 07:05:50;;;;;;;48.30;29.33;;;;;;;7.62;100.00;97791.72;4993469;28;20203;-78
2022/03/30 07:11:05;;;;;;;49.37;29.90;;;;;;;7.54;100.00;97783.56;4995989;28;20199;-78
2022/03/30 07:13:33;;;;;;;46.00;29.53;;;;;;;7.59;100.00;97785.84;4993989;28;20203;-78
2022/03/30 07:16:05;;;;;;;52.97;29.70;;;;;;;7.61;100.00;97783.94;4994645;28;20283;-79
2022/03/30 07:18:34;;;;;;;49.03;29.33;;;;;;;7.56;100.00;97786.94;4989653;28;20201;-79
2022/03/30 07:21:02;;;;;;;45.97;28.57;;;;;;;7.74;100.00;97787.34;4991880;28;20306;-78
2022/03/30 07:23:31;;;;;;;46.57;29.07;;;;;;;7.71;100.00;97777.88;4987268;28;20565;-79
2022/03/30 07:26:00;;;;;;;45.20;28.97;;;;;;;7.71;100.00;97772.59;4987560;28;20761;-78
2022/03/30 07:28:29;;;;;;;43.17;26.93;;;;;;;7.95;100.00;97769.09;4992864;28;20263;-78
2022/03/30 07:30:58;;;;;;;45.33;28.23;;;;;;;7.89;100.00;97766.91;4993702;28;20270;-79
2022/03/30 07:33:29;;;;;;;45.97;28.07;;;;;;;8.05;100.00;97775.34;4990700;28;20654;-78
2022/03/30 07:35:57;;;;;;;47.43;27.20;;;;;;;8.19;100.00;97775.13;4991636;28;20210;-79
2022/03/30 07:38:26;;;;;;;49.50;27.73;;;;;;;8.26;100.00;97775.50;4990372;28;20199;-79
2022/03/30 07:40:55;;;;;;;46.77;28.53;;;;;;;8.23;100.00;97781.00;4995505;28;20191;-79
2022/03/30 07:43:24;;;;;;;42.30;27.07;;;;;;;7.97;100.00;97789.09;4992386;28;20221;-79
2022/03/30 07:45:53;;;;;;;43.87;26.70;;;;;;;7.85;100.00;97786.56;4994056;28;20282;-79
2022/03/30 07:48:21;;;;;;;48.67;29.13;;;;;;;7.63;100.00;97784.69;4989313;28;20219;-79
2022/03/30 07:50:52;;;;;;;47.70;28.13;;;;;;;7.41;100.00;97791.50;4946904;28;20207;-78
2022/03/30 07:53:20;;;;;;;50.43;29.67;;;;;;;7.46;100.00;97799.94;4954206;28;20204;-79
2022/03/30 07:55:48;;;;;;;49.93;30.10;;;;;;;7.23;100.00;97808.66;4954381;28;20282;-79
2022/03/30 07:58:17;;;;;;;50.70;29.10;;;;;;;7.09;100.00;97801.75;4954153;28;20204;-79
2022/03/30 08:00:45;;;;;;;48.17;29.60;;;;;;;7.20;100.00;97808.88;4951911;28;20211;-79
2022/03/30 08:03:14;;;;;;;47.13;28.77;;;;;;;7.43;100.00;97810.69;4952377;28;20204;-79
2022/03/30 08:05:45;;;;;;;47.83;27.57;;;;;;;7.39;100.00;97806.59;4953979;28;20200;-79
2022/03/30 08:08:17;;;;;;;47.53;28.30;;;;;;;7.56;100.00;97805.38;4960507;28;20202;-79
2022/03/30 08:10:45;;;;;;;46.97;27.80;;;;;;;7.45;100.00;97800.03;4992321;28;20199;-79
2022/03/30 08:13:14;;;;;;;46.13;28.47;;;;;;;7.54;100.00;97801.16;4994024;28;20240;-78
2022/03/30 08:15:43;;;;;;;46.30;27.83;;;;;;;7.80;100.00;97801.84;4983677;28;20203;-78
2022/03/30 08:18:11;;;;;;;47.87;28.17;;;;;;;8.00;100.00;97788.03;4990475;28;20203;-79
2022/03/30 08:23:28;;;;;;;44.47;28.33;;;;;;;7.88;100.00;97784.50;5011904;28;20197;-79
2022/03/30 08:25:57;;;;;;;43.57;27.23;;;;;;;8.07;100.00;97794.50;5011925;28;20618;-79
2022/03/30 08:28:27;;;;;;;52.50;31.00;;;;;;;7.98;100.00;97785.50;4973934;28;20210;-79
2022/03/30 08:30:55;;;;;;;65.47;38.67;;;;;;;8.25;100.00;97785.19;5008123;28;20193;-78
2022/03/30 08:33:26;;;;;;;62.33;36.43;;;;;;;8.22;100.00;97781.97;5002012;28;20202;-79
2022/03/30 08:35:57;;;;;;;59.77;35.87;;;;;;;8.41;100.00;97778.78;5005070;28;20199;-79
2022/03/30 08:38:28;;;;;;;62.80;38.73;;;;;;;8.57;100.00;97784.53;5000034;28;20245;-79
2022/03/30 08:40:58;;;;;;;53.27;31.90;;;;;;;8.52;100.00;97770.88;4987340;28;20211;-79
2022/03/30 08:43:29;;;;;;;45.53;25.57;;;;;;;8.47;100.00;97765.09;4990657;28;20238;-79
2022/03/30 08:46:00;;;;;;;42.13;26.43;;;;;;;8.78;100.00;97774.09;4987913;28;20195;-78
2022/03/30 08:48:29;;;;;;;50.50;32.30;;;;;;;8.52;100.00;97770.88;4992969;28;20191;-79
2022/03/30 08:50:58;;;;;;;42.80;27.33;;;;;;;8.58;100.00;97768.59;4993833;28;20191;-79
2022/03/30 08:53:29;;;;;;;38.47;25.63;;;;;;;8.55;100.00;97775.91;4988884;28;20278;-79
2022/03/30 08:55:57;;;;;;;50.63;28.37;;;;;;;8.83;100.00;97769.31;4993967;28;20203;-78
2022/03/30 08:58:25;;;;;;;41.67;27.27;;;;;;;8.82;100.00;97776.38;4994025;28;20199;-79
2022/03/30 09:00:54;;;;;;;42.27;27.00;;;;;;;8.71;100.00;97768.47;4986492;28;20215;-78
2022/03/30 09:03:23;;;;;;;36.37;24.73;;;;;;;9.13;100.00;97773.94;4993839;28;20274;-78
2022/03/30 09:05:52;;;;;;;37.43;24.43;;;;;;;9.16;100.00;97771.03;4992447;28;20207;-78
2022/03/30 09:08:27;;;;;;;41.33;26.37;;;;;;;9.16;100.00;97765.75;4993640;28;20202;-78
2022/03/30 09:10:59;;;;;;;41.67;26.27;;;;;;;9.00;100.00;97760.88;4986007;28;20230;-79
2022/03/30 09:13:27;;;;;;;40.47;24.60;;;;;;;9.05;100.00;97761.34;4992447;28;20229;-79
2022/03/30 09:15:55;;;;;;;38.63;25.20;;;;;;;9.12;100.00;97761.69;4989878;28;20210;-79
2022/03/30 09:18:24;;;;;;;37.70;23.90;;;;;;;9.37;100.00;97757.91;4993324;28;20281;-79
2022/03/30 09:20:55;;;;;;;35.23;23.03;;;;;;;9.46;100.00;97750.06;4993593;28;20238;-79
2022/03/30 09:23:27;;;;;;;34.43;24.13;;;;;;;9.82;100.00;97747.97;4990647;28;20278;-79
2022/03/30 09:25:58;;;;;;;35.47;24.10;;;;;;;9.74;100.00;97753.06;4988500;28;20194;-79
2022/03/30 09:28:27;;;;;;;35.23;23.20;;;;;;;9.92;100.00;97743.59;4993454;28;20414;-79
2022/03/30 09:30:55;;;;;;;34.70;23.33;;;;;;;9.98;100.00;97745.72;4991976;28;20226;-78
2022/03/30 09:33:25;;;;;;;33.30;22.60;;;;;;;9.64;100.00;97741.56;4990858;28;20273;-79
2022/03/30 09:35:54;;;;;;;32.33;22.50;;;;;;;9.98;100.00;97739.59;4993531;28;20195;-79
2022/03/30 09:38:25;;;;;;;33.60;22.13;;;;;;;9.86;100.00;97736.19;4990858;28;20282;-79
2022/03/30 09:40:56;;;;;;;32.27;21.77;;;;;;;10.13;100.00;97732.16;4989376;28;20261;-79
2022/03/30 09:43:27;;;;;;;38.77;25.07;;;;;;;10.01;100.00;97734.88;4993393;28;20278;-79
2022/03/30 09:46:08;;;;;;;43.83;27.03;;;;;;;10.26;100.00;97732.84;4993963;28;20371;-79
2022/03/30 09:48:40;;;;;;;52.33;29.30;;;;;;;10.17;100.00;97734.44;4993316;28;20188;-79
2022/03/30 09:51:09;;;;;;;34.00;22.70;;;;;;;10.16;100.00;97729.28;4993548;28;20302;-79
2022/03/30 09:53:41;;;;;;;31.60;21.13;;;;;;;10.17;100.00;97723.84;4993995;28;20684;-79
2022/03/30 09:56:16;;;;;;;32.03;21.17;;;;;;;10.38;100.00;97721.19;4997519;28;20222;-79
2022/03/30 09:58:47;;;;;;;32.80;20.80;;;;;;;10.19;100.00;97718.41;4997509;28;20194;-79
2022/03/30 10:01:19;;;;;;;29.07;19.57;;;;;;;10.22;100.00;97705.78;4995683;28;20199;-79
2022/03/30 10:03:53;;;;;;;30.83;20.53;;;;;;;10.59;100.00;97702.59;4997109;28;20249;-79
2022/03/30 10:06:23;;;;;;;31.73;20.50;;;;;;;10.83;100.00;97703.09;4999493;28;20199;-79
2022/03/30 10:08:52;;;;;;;30.90;19.07;;;;;;;11.14;100.00;97701.22;4990824;28;20245;-79
2022/03/30 10:11:21;;;;;;;25.33;17.90;;;;;;;10.80;100.00;97708.66;4997675;28;20230;-79
2022/03/30 10:13:54;;;;;;;27.43;18.93;;;;;;;10.74;100.00;97698.63;4996867;28;20205;-79
2022/03/30 10:16:41;;;;;;;31.27;19.63;;;;;;;10.63;100.00;97692.59;4997233;28;20222;-79
2022/03/30 10:19:10;;;;;;;32.60;21.10;;;;;;;10.62;100.00;97704.16;4979151;28;20414;-79
2022/03/30 10:21:48;;;;;;;27.50;19.77;;;;;;;10.74;100.00;97688.03;4992665;28;20219;-79
2022/03/30 10:24:32;;;;;;;33.47;20.83;;;;;;;10.35;100.00;97684.41;4992919;28;20223;-79
2022/03/30 10:27:13;;;;;;;30.63;20.37;;;;;;;10.65;100.00;97683.53;4996338;28;20385;-79
2022/03/30 10:29:53;;;;;;;28.33;19.13;;;;;;;11.08;100.00;97685.84;4992058;28;20223;-79
2022/03/30 10:32:23;;;;;;;29.07;19.10;;;;;;;11.04;100.00;97678.34;4996235;28;20194;-79
2022/03/30 10:35:04;;;;;;;25.53;18.10;;;;;;;11.37;100.00;97675.28;4993275;28;20195;-80
2022/03/30 10:37:36;;;;;;;31.27;20.43;;;;;;;11.54;100.00;97673.72;4991451;28;20202;-79
2022/03/30 10:40:24;;;;;;;26.60;17.83;;;;;;;11.48;100.00;97676.94;4976386;28;20203;-79
2022/03/30 10:43:04;;;;;;;28.43;18.63;;;;;;;10.93;100.00;97676.66;4996718;28;20199;-80
2022/03/30 10:45:44;;;;;;;29.93;18.37;;;;;;;10.76;100.00;97678.13;4994883;28;20277;-79
2022/03/30 10:48:19;;;;;;;28.03;18.40;;;;;;;10.82;100.00;97668.81;4998420;28;20286;-79
2022/03/30 10:50:50;;;;;;;27.70;17.80;;;;;;;11.10;100.00;97675.16;4975640;28;20218;-79
2022/03/30 10:53:52;;;;;;;31.77;19.60;;;;;;;11.65;100.00;97667.44;4995837;28;20203;-80
2022/03/30 10:56:32;;;;;;;27.43;18.07;;;;;;;11.43;100.00;97664.13;4995707;28;20257;-79
2022/03/30 10:59:15;;;;;;;30.03;16.93;;;;;;;11.37;100.00;97655.88;4994627;28;20343;-79
2022/03/30 11:01:49;;;;;;;23.87;16.37;;;;;;;11.76;100.00;97649.53;4995631;28;20202;-79
2022/03/30 11:04:25;;;;;;;24.23;16.43;;;;;;;11.77;100.00;97658.34;4991518;28;20195;-79
2022/03/30 11:07:36;;;;;;;23.53;16.53;;;;;;;11.62;100.00;97650.00;4995594;28;20285;-80
2022/03/30 11:10:24;;;;;;;27.27;17.17;;;;;;;11.71;100.00;97645.66;4995965;28;20301;-80
2022/03/30 11:13:08;;;;;;;24.07;16.37;;;;;;;11.43;100.00;97645.56;4996108;28;20191;-80
2022/03/30 11:16:11;;;;;;;32.23;16.90;;;;;;;11.73;100.00;97657.81;4994656;28;20199;-80
2022/03/30 11:19:02;;;;;;;28.03;18.20;;;;;;;11.91;100.00;97642.03;4992862;28;20195;-79
2022/03/30 11:21:33;;;;;;;22.97;16.43;;;;;;;11.95;100.00;97635.44;4972065;28;20277;-80
2022/03/30 11:24:09;;;;;;;23.87;16.23;;;;;;;11.95;100.00;97634.59;4952524;28;20223;-79
2022/03/30 11:27:20;;;;;;;23.50;15.73;;;;;;;11.93;100.00;97641.88;4952389;28;20199;-79
2022/03/30 11:30:13;;;;;;;25.47;17.63;;;;;;;11.87;100.00;97645.94;4948241;28;20201;-80
2022/03/30 11:33:01;;;;;;;24.57;16.30;;;;;;;11.88;100.00;97647.63;4951655;28;20204;-80
2022/03/30 11:35:49;;;;;;;24.97;17.20;;;;;;;11.49;100.00;97641.53;4952214;28;20232;-80
2022/03/30 11:38:22;;;;;;;21.50;15.50;;;;;;;11.68;100.00;97638.84;4952403;28;20231;-79
2022/03/30 11:40:57;;;;;;;23.20;15.17;;;;;;;11.72;100.00;97642.03;4949593;28;20200;-80